Time;durP1;ratioP1;P1;durP2;ratioP2;P2;SDS_P1;SDS_P2;PMS_P1;PMS_P2;Temp;Humidity;BMP_temperature;BMP_pressure;BME280_temperature;BME280_humidity;BME280_pressure;Samples;Min_cycle;Max_cycle;Signal;HPM_P1;HPM_P2
2023/05/25 00:02:18;;;;;;;9.75;3.25;;;;;;;;;;4995736;28;20155;-76
2023/05/25 00:04:47;;;;;;;14.80;4.07;;;;;;;;;;4994657;28;20050;-75
2023/05/25 00:07:13;;;;;;;10.48;3.50;;;;;;;;;;4995848;28;20042;-76
2023/05/25 00:09:40;;;;;;;12.57;2.78;;;;;;;;;;4995580;28;20390;-76
2023/05/25 00:12:06;;;;;;;14.52;3.67;;;;;;;;;;4996714;28;20466;-76
2023/05/25 00:14:31;;;;;;;21.35;3.88;;;;;;;;;;4996697;28;20137;-77
2023/05/25 00:16:57;;;;;;;20.15;3.53;;;;;;;;;;4996880;28;20034;-76
2023/05/25 00:19:23;;;;;;;13.60;4.10;;;;;;;;;;4995879;28;20042;-76
2023/05/25 00:21:49;;;;;;;10.80;3.40;;;;;;;;;;4996525;28;20078;-77
2023/05/25 00:24:15;;;;;;;8.48;3.50;;;;;;;;;;4996714;28;20034;-76
2023/05/25 00:26:40;;;;;;;13.38;3.50;;;;;;;;;;4994726;28;20501;-76
2023/05/25 00:29:06;;;;;;;9.00;2.90;;;;;;;;;;4995417;28;20053;-76
2023/05/25 00:31:32;;;;;;;10.02;3.33;;;;;;;;;;4995160;28;20037;-76
2023/05/25 00:33:58;;;;;;;13.13;3.17;;;;;;;;;;4995273;28;20045;-76
2023/05/25 00:36:24;;;;;;;7.88;3.33;;;;;;;;;;4994191;28;20038;-76
2023/05/25 00:38:50;;;;;;;12.77;3.20;;;;;;;;;;4995386;28;20368;-75
2023/05/25 00:41:18;;;;;;;13.82;2.80;;;;;;;;;;4995885;28;20034;-76
2023/05/25 00:43:46;;;;;;;13.30;3.28;;;;;;;;;;4996054;28;20078;-76
2023/05/25 00:46:15;;;;;;;7.45;2.95;;;;;;;;;;4996001;28;20368;-77
2023/05/25 00:48:41;;;;;;;7.68;2.95;;;;;;;;;;4996298;28;20124;-76
2023/05/25 00:51:09;;;;;;;12.30;3.40;;;;;;;;;;4993675;28;20038;-76
2023/05/25 00:53:35;;;;;;;10.15;2.75;;;;;;;;;;4996088;28;20033;-76
2023/05/25 00:56:13;;;;;;;9.27;3.17;;;;;;;;;;4995923;28;20089;-76
2023/05/25 00:58:40;;;;;;;9.57;3.10;;;;;;;;;;4994312;28;20060;-75
2023/05/25 01:01:10;;;;;;;7.38;2.78;;;;;;;;;;4983174;28;20475;-77
2023/05/25 01:03:37;;;;;;;10.02;3.33;;;;;;;;;;4990274;28;20101;-76
2023/05/25 01:06:03;;;;;;;10.93;3.15;;;;;;;;;;4994376;28;20478;-76
2023/05/25 01:08:30;;;;;;;10.07;3.05;;;;;;;;;;4994524;28;20057;-77
2023/05/25 01:10:56;;;;;;;7.88;2.58;;;;;;;;;;4994526;28;20426;-76
2023/05/25 01:13:21;;;;;;;10.65;2.60;;;;;;;;;;4994353;28;20125;-76
2023/05/25 01:15:47;;;;;;;12.13;2.58;;;;;;;;;;4995696;28;20050;-76
2023/05/25 01:18:16;;;;;;;9.38;2.90;;;;;;;;;;4994492;28;20109;-76
2023/05/25 01:21:12;;;;;;;12.13;2.67;;;;;;;;;;4985655;28;20410;-76
2023/05/25 01:23:42;;;;;;;8.80;2.65;;;;;;;;;;4993747;28;20114;-76
2023/05/25 01:26:12;;;;;;;6.10;2.65;;;;;;;;;;4994299;28;20033;-77
2023/05/25 01:28:40;;;;;;;16.27;2.88;;;;;;;;;;4994116;28;20046;-76
2023/05/25 01:31:06;;;;;;;10.05;2.72;;;;;;;;;;4994281;28;20034;-76
2023/05/25 01:33:32;;;;;;;15.10;3.35;;;;;;;;;;4995110;28;20101;-76
2023/05/25 01:35:58;;;;;;;7.63;2.60;;;;;;;;;;4994188;28;20042;-76
2023/05/25 01:38:24;;;;;;;5.05;2.45;;;;;;;;;;4995230;28;20034;-76
2023/05/25 01:40:49;;;;;;;7.45;2.67;;;;;;;;;;4995125;28;20088;-76
2023/05/25 01:43:15;;;;;;;12.75;3.35;;;;;;;;;;4995112;28;20070;-77
2023/05/25 01:45:41;;;;;;;15.20;2.95;;;;;;;;;;4995139;28;20119;-76
2023/05/25 01:48:25;;;;;;;5.65;2.50;;;;;;;;;;4993861;28;20139;-77
2023/05/25 01:50:50;;;;;;;;;;;;;;;;;;4988754;28;20442;-77
2023/05/25 01:53:44;;;;;;;11.18;2.40;;;;;;;;;;4995155;28;19921;-76
2023/05/25 01:56:10;;;;;;;5.95;2.03;;;;;;;;;;4994787;28;20492;-76
2023/05/25 01:58:42;;;;;;;9.60;2.20;;;;;;;;;;4994421;28;20073;-76
2023/05/25 02:01:09;;;;;;;6.53;2.20;;;;;;;;;;4993264;28;20046;-76
2023/05/25 02:03:35;;;;;;;7.18;2.65;;;;;;;;;;4977285;28;20061;-76
2023/05/25 02:06:01;;;;;;;8.65;2.13;;;;;;;;;;4993525;28;20121;-76
2023/05/25 02:08:26;;;;;;;8.00;2.63;;;;;;;;;;4994518;28;20086;-77
2023/05/25 02:10:52;;;;;;;11.57;2.63;;;;;;;;;;4994727;28;20464;-76
2023/05/25 02:13:17;;;;;;;9.00;2.58;;;;;;;;;;4994412;28;20046;-75
2023/05/25 02:15:42;;;;;;;14.07;2.22;;;;;;;;;;4993110;28;20038;-76
2023/05/25 02:18:08;;;;;;;10.82;2.42;;;;;;;;;;4994080;28;20118;-77
2023/05/25 02:20:35;;;;;;;5.45;2.33;;;;;;;;;;4994328;28;20042;-76
2023/05/25 02:23:00;;;;;;;13.07;2.30;;;;;;;;;;4985029;28;20034;-76
2023/05/25 02:25:26;;;;;;;16.02;2.40;;;;;;;;;;4994338;28;20101;-76
2023/05/25 02:27:51;;;;;;;10.43;2.33;;;;;;;;;;4994318;28;20069;-76
2023/05/25 02:30:17;;;;;;;15.20;3.00;;;;;;;;;;4994333;28;20121;-76
2023/05/25 02:32:42;;;;;;;4.82;2.40;;;;;;;;;;4994185;28;20046;-76
2023/05/25 02:35:08;;;;;;;8.57;2.38;;;;;;;;;;4993017;28;20467;-76
2023/05/25 02:37:33;;;;;;;13.80;2.75;;;;;;;;;;4993640;28;20062;-76
2023/05/25 02:39:59;;;;;;;5.65;2.00;;;;;;;;;;4994074;28;20035;-76
2023/05/25 02:42:24;;;;;;;6.68;2.13;;;;;;;;;;4993756;28;20046;-76
2023/05/25 02:44:49;;;;;;;7.72;2.47;;;;;;;;;;4992802;28;20034;-76
2023/05/25 02:47:16;;;;;;;6.60;2.58;;;;;;;;;;4993814;28;20084;-77
2023/05/25 02:49:42;;;;;;;9.50;2.40;;;;;;;;;;4992738;28;20409;-77
2023/05/25 02:52:07;;;;;;;6.38;2.30;;;;;;;;;;4993942;28;20109;-76
2023/05/25 02:54:33;;;;;;;12.98;2.90;;;;;;;;;;4993879;28;20046;-76
2023/05/25 02:56:58;;;;;;;6.00;1.90;;;;;;;;;;4993895;28;20038;-77
2023/05/25 02:59:23;;;;;;;10.20;2.13;;;;;;;;;;4993608;28;20042;-76
2023/05/25 03:01:49;;;;;;;5.03;2.13;;;;;;;;;;4993931;28;20039;-76
2023/05/25 03:04:15;;;;;;;6.72;2.10;;;;;;;;;;4993779;28;20421;-75
2023/05/25 03:06:40;;;;;;;10.88;2.20;;;;;;;;;;4992584;28;20034;-76
2023/05/25 03:09:06;;;;;;;12.27;2.30;;;;;;;;;;4993648;28;20039;-76
2023/05/25 03:11:31;;;;;;;5.50;2.00;;;;;;;;;;4993037;28;20402;-76
2023/05/25 03:13:57;;;;;;;7.50;2.30;;;;;;;;;;4992608;28;20426;-77
2023/05/25 03:16:23;;;;;;;8.90;2.67;;;;;;;;;;4993404;28;20813;-76
2023/05/25 03:18:48;;;;;;;4.45;2.25;;;;;;;;;;4993611;28;20066;-76
2023/05/25 03:21:13;;;;;;;6.50;2.47;;;;;;;;;;4993829;28;20030;-76
2023/05/25 03:23:39;;;;;;;6.30;2.35;;;;;;;;;;4993566;28;20064;-76
2023/05/25 03:26:04;;;;;;;11.80;2.42;;;;;;;;;;4993485;28;20142;-76
2023/05/25 03:28:29;;;;;;;12.82;2.78;;;;;;;;;;4993662;28;20058;-76
2023/05/25 03:30:55;;;;;;;17.85;2.97;;;;;;;;;;4993591;28;20390;-76
2023/05/25 03:33:20;;;;;;;6.55;2.25;;;;;;;;;;4992280;28;20501;-77
2023/05/25 03:35:46;;;;;;;6.00;2.17;;;;;;;;;;4993529;28;20042;-77
2023/05/25 03:38:11;;;;;;;7.95;2.03;;;;;;;;;;4991689;28;20113;-77
2023/05/25 03:40:37;;;;;;;5.70;2.92;;;;;;;;;;4993611;28;20533;-77
2023/05/25 03:43:02;;;;;;;11.43;2.42;;;;;;;;;;4993723;28;20497;-77
2023/05/25 03:45:27;;;;;;;6.80;2.10;;;;;;;;;;4993294;28;20038;-76
2023/05/25 03:47:53;;;;;;;7.28;2.67;;;;;;;;;;4993704;28;20434;-76
2023/05/25 03:50:19;;;;;;;8.82;2.63;;;;;;;;;;4993280;28;20030;-76
2023/05/25 03:52:44;;;;;;;8.60;2.35;;;;;;;;;;4992299;28;20292;-76
2023/05/25 03:55:10;;;;;;;8.05;2.42;;;;;;;;;;4994491;28;20478;-76
2023/05/25 03:57:35;;;;;;;7.03;1.92;;;;;;;;;;4996779;28;20057;-76
2023/05/25 04:00:01;;;;;;;7.97;2.42;;;;;;;;;;4997215;28;20109;-76
2023/05/25 04:02:26;;;;;;;7.13;2.25;;;;;;;;;;4996960;28;20065;-76
2023/05/25 04:04:52;;;;;;;14.00;2.20;;;;;;;;;;4996928;28;20113;-76
2023/05/25 04:07:19;;;;;;;8.88;2.42;;;;;;;;;;4996869;28;20045;-77
2023/05/25 04:09:44;;;;;;;8.05;2.25;;;;;;;;;;4995731;28;20093;-76
2023/05/25 04:12:09;;;;;;;14.55;2.40;;;;;;;;;;4996862;28;20034;-77
2023/05/25 04:14:35;;;;;;;9.35;2.08;;;;;;;;;;4994562;28;20077;-76
2023/05/25 04:17:00;;;;;;;6.85;2.47;;;;;;;;;;4996947;28;20042;-76
2023/05/25 04:19:26;;;;;;;5.38;2.35;;;;;;;;;;4996606;28;20124;-76
2023/05/25 04:21:51;;;;;;;11.80;2.33;;;;;;;;;;4996584;28;20039;-76
2023/05/25 04:24:16;;;;;;;9.88;2.38;;;;;;;;;;4996630;28;20093;-76
2023/05/25 04:26:42;;;;;;;7.53;2.20;;;;;;;;;;4996715;28;20108;-76
2023/05/25 04:29:08;;;;;;;5.18;2.00;;;;;;;;;;4991825;28;20038;-76
2023/05/25 04:31:34;;;;;;;8.20;2.38;;;;;;;;;;4989179;28;20065;-76
2023/05/25 04:34:01;;;;;;;6.70;2.10;;;;;;;;;;4996441;28;20065;-76
2023/05/25 04:36:26;;;;;;;9.10;2.20;;;;;;;;;;4994828;28;20457;-76
2023/05/25 04:38:53;;;;;;;13.55;2.88;;;;;;;;;;4995199;28;20121;-76
2023/05/25 04:41:19;;;;;;;10.02;2.50;;;;;;;;;;4996213;28;20121;-76
2023/05/25 04:43:44;;;;;;;10.20;1.85;;;;;;;;;;4990265;28;20125;-76
2023/05/25 04:46:12;;;;;;;5.10;1.90;;;;;;;;;;4996105;28;20128;-76
2023/05/25 04:48:38;;;;;;;10.05;2.50;;;;;;;;;;4996068;28;20030;-76
2023/05/25 04:51:05;;;;;;;6.13;2.13;;;;;;;;;;4996040;28;20046;-76
2023/05/25 04:53:31;;;;;;;10.55;2.35;;;;;;;;;;4993141;28;20034;-76
2023/05/25 04:55:57;;;;;;;4.10;2.22;;;;;;;;;;4995912;28;20038;-75
2023/05/25 04:58:23;;;;;;;7.53;2.25;;;;;;;;;;4993147;28;20074;-76
2023/05/25 05:00:48;;;;;;;6.97;2.15;;;;;;;;;;4995551;28;20453;-77
2023/05/25 05:03:14;;;;;;;6.13;1.88;;;;;;;;;;4995897;28;20122;-77
2023/05/25 05:05:39;;;;;;;3.53;1.77;;;;;;;;;;4995171;28;20617;-76
2023/05/25 05:08:04;;;;;;;7.65;2.35;;;;;;;;;;4994677;28;20117;-77
2023/05/25 05:10:30;;;;;;;4.78;1.83;;;;;;;;;;4995800;28;20434;-76
2023/05/25 05:12:55;;;;;;;6.30;1.58;;;;;;;;;;4995719;28;20053;-76
2023/05/25 05:15:21;;;;;;;3.95;1.60;;;;;;;;;;4993562;28;20046;-75
2023/05/25 05:17:46;;;;;;;3.95;1.55;;;;;;;;;;4994712;28;20030;-76
2023/05/25 05:20:12;;;;;;;6.63;1.67;;;;;;;;;;4995604;28;20376;-77
2023/05/25 05:22:37;;;;;;;6.93;1.95;;;;;;;;;;4995717;28;20030;-76
2023/05/25 05:25:03;;;;;;;2.78;1.40;;;;;;;;;;4995470;28;20386;-76
2023/05/25 05:27:28;;;;;;;7.80;1.90;;;;;;;;;;4995176;28;20052;-77
2023/05/25 05:29:54;;;;;;;3.55;1.40;;;;;;;;;;4994306;28;20057;-77
2023/05/25 05:32:19;;;;;;;3.25;1.60;;;;;;;;;;4995359;28;20038;-78
2023/05/25 05:34:45;;;;;;;3.83;1.58;;;;;;;;;;4995462;28;20546;-77
2023/05/25 05:37:10;;;;;;;7.60;2.08;;;;;;;;;;4995433;28;20442;-77
2023/05/25 05:39:36;;;;;;;2.53;1.40;;;;;;;;;;4995060;28;20459;-77
2023/05/25 05:42:01;;;;;;;2.08;1.10;;;;;;;;;;4993563;28;20434;-77
2023/05/25 05:44:26;;;;;;;4.32;1.70;;;;;;;;;;4994675;28;20048;-77
2023/05/25 05:46:58;;;;;;;4.43;1.30;;;;;;;;;;4995039;28;20085;-77
2023/05/25 05:49:27;;;;;;;8.05;2.05;;;;;;;;;;4994584;28;20482;-76
2023/05/25 05:51:52;;;;;;;5.38;1.50;;;;;;;;;;4993835;28;20061;-77
2023/05/25 05:54:18;;;;;;;4.57;1.52;;;;;;;;;;4993587;28;20479;-77
2023/05/25 05:56:43;;;;;;;2.92;1.30;;;;;;;;;;4993605;28;20061;-76
2023/05/25 05:59:10;;;;;;;4.40;1.40;;;;;;;;;;4994388;28;20058;-75
2023/05/25 06:01:35;;;;;;;4.35;1.45;;;;;;;;;;4986917;28;20092;-77
2023/05/25 06:04:01;;;;;;;3.40;1.20;;;;;;;;;;4994855;28;20472;-77
2023/05/25 06:06:26;;;;;;;3.25;1.33;;;;;;;;;;4994556;28;20061;-76
2023/05/25 06:08:51;;;;;;;3.72;1.25;;;;;;;;;;4994649;28;20062;-74
2023/05/25 06:11:17;;;;;;;3.22;1.33;;;;;;;;;;4994708;28;20149;-74
2023/05/25 06:13:42;;;;;;;2.33;1.20;;;;;;;;;;4994608;28;20070;-77
2023/05/25 06:16:08;;;;;;;5.68;1.50;;;;;;;;;;4994423;28;20718;-74
2023/05/25 06:18:33;;;;;;;4.20;1.58;;;;;;;;;;4993732;28;20459;-76
2023/05/25 06:21:00;;;;;;;2.72;1.35;;;;;;;;;;4994545;28;20042;-77
2023/05/25 06:23:26;;;;;;;5.47;1.30;;;;;;;;;;4993217;28;20051;-77
2023/05/25 06:25:52;;;;;;;6.40;1.50;;;;;;;;;;4994124;28;20467;-76
2023/05/25 06:28:17;;;;;;;6.10;2.03;;;;;;;;;;4994457;28;20045;-76
2023/05/25 06:30:43;;;;;;;5.45;2.03;;;;;;;;;;4990944;28;20042;-76
2023/05/25 06:33:08;;;;;;;5.72;2.10;;;;;;;;;;4993963;28;20030;-76
2023/05/25 06:35:33;;;;;;;4.55;1.80;;;;;;;;;;4993073;28;20049;-74
2023/05/25 06:37:59;;;;;;;5.68;1.90;;;;;;;;;;4994178;28;20046;-74
2023/05/25 06:40:24;;;;;;;3.03;1.60;;;;;;;;;;4994169;28;20034;-74
2023/05/25 06:42:50;;;;;;;8.18;1.98;;;;;;;;;;4994243;28;20074;-75
2023/05/25 06:45:16;;;;;;;5.03;1.95;;;;;;;;;;4993962;28;20100;-75
2023/05/25 06:47:41;;;;;;;3.55;1.67;;;;;;;;;;4994114;28;20121;-74
2023/05/25 06:50:07;;;;;;;5.72;1.98;;;;;;;;;;4994171;28;20030;-75
2023/05/25 06:52:33;;;;;;;4.18;1.80;;;;;;;;;;4993836;28;20061;-74
2023/05/25 06:54:58;;;;;;;3.95;1.70;;;;;;;;;;4994003;28;20037;-75
2023/05/25 06:57:23;;;;;;;4.68;1.77;;;;;;;;;;4993647;28;20038;-73
2023/05/25 06:59:49;;;;;;;4.93;1.60;;;;;;;;;;4993940;28;20034;-75
2023/05/25 07:02:14;;;;;;;6.05;1.90;;;;;;;;;;4992772;28;20125;-78
2023/05/25 07:04:40;;;;;;;7.72;2.00;;;;;;;;;;4993655;28;20046;-75
2023/05/25 07:07:05;;;;;;;6.03;1.85;;;;;;;;;;4993972;28;20538;-74
2023/05/25 07:09:31;;;;;;;4.97;1.70;;;;;;;;;;4991857;28;20034;-75
2023/05/25 07:11:56;;;;;;;4.32;2.20;;;;;;;;;;4993616;28;20509;-74
2023/05/25 07:14:22;;;;;;;6.25;1.98;;;;;;;;;;4991527;28;20035;-75
2023/05/25 07:16:47;;;;;;;5.10;2.25;;;;;;;;;;4992544;28;20066;-74
2023/05/25 07:19:13;;;;;;;4.90;1.95;;;;;;;;;;4993378;28;20502;-75
2023/05/25 07:21:38;;;;;;;6.38;2.00;;;;;;;;;;4991410;28;20043;-74
2023/05/25 07:24:04;;;;;;;7.75;2.75;;;;;;;;;;4993682;28;20042;-74
2023/05/25 07:26:30;;;;;;;6.20;2.20;;;;;;;;;;4993692;28;20129;-74
2023/05/25 07:28:56;;;;;;;5.72;2.03;;;;;;;;;;4994542;28;20458;-76
2023/05/25 07:31:21;;;;;;;7.50;2.33;;;;;;;;;;4997706;28;20034;-76
2023/05/25 07:33:47;;;;;;;6.38;2.10;;;;;;;;;;4997049;28;20045;-76
2023/05/25 07:36:12;;;;;;;5.13;1.67;;;;;;;;;;4997467;28;20042;-77
2023/05/25 07:38:38;;;;;;;7.80;2.17;;;;;;;;;;4984654;28;20027;-77
2023/05/25 07:41:03;;;;;;;8.35;2.00;;;;;;;;;;4997481;28;20041;-78
2023/05/25 07:43:29;;;;;;;5.45;1.90;;;;;;;;;;4997325;28;20109;-76
2023/05/25 07:45:54;;;;;;;6.55;2.10;;;;;;;;;;4996992;28;20034;-75
2023/05/25 07:48:20;;;;;;;7.00;2.38;;;;;;;;;;4997417;28;20050;-74
2023/05/25 07:50:45;;;;;;;4.05;1.83;;;;;;;;;;4997044;28;20042;-76
2023/05/25 07:53:11;;;;;;;6.85;2.33;;;;;;;;;;4997298;28;20030;-77
2023/05/25 07:55:36;;;;;;;4.53;2.40;;;;;;;;;;4997048;28;20034;-77
2023/05/25 07:58:01;;;;;;;7.97;2.20;;;;;;;;;;4996797;28;20042;-75
2023/05/25 08:00:27;;;;;;;8.30;2.80;;;;;;;;;;4997408;28;20068;-76
2023/05/25 08:02:52;;;;;;;5.55;2.30;;;;;;;;;;4996908;28;20112;-76
2023/05/25 08:05:19;;;;;;;7.75;2.20;;;;;;;;;;4996698;28;20053;-77
2023/05/25 08:07:45;;;;;;;6.40;2.45;;;;;;;;;;4996863;28;20046;-76
2023/05/25 08:10:10;;;;;;;6.15;2.10;;;;;;;;;;4995896;28;20034;-76
2023/05/25 08:12:36;;;;;;;7.28;2.72;;;;;;;;;;4996684;28;20049;-76
2023/05/25 08:15:01;;;;;;;6.95;2.45;;;;;;;;;;4996924;28;20042;-76
2023/05/25 08:17:27;;;;;;;11.55;3.00;;;;;;;;;;4996910;28;20073;-76
2023/05/25 08:19:56;;;;;;;5.55;2.40;;;;;;;;;;4995475;28;20422;-76
2023/05/25 08:22:22;;;;;;;4.80;2.65;;;;;;;;;;4995304;28;20435;-77
2023/05/25 08:24:47;;;;;;;6.32;2.30;;;;;;;;;;4994505;28;20050;-76
2023/05/25 08:27:12;;;;;;;7.45;2.60;;;;;;;;;;4995526;28;20044;-76
2023/05/25 08:29:38;;;;;;;8.20;2.60;;;;;;;;;;4995029;28;20053;-73
2023/05/25 08:32:03;;;;;;;6.80;2.50;;;;;;;;;;4996552;28;20046;-74
2023/05/25 08:34:29;;;;;;;7.70;3.22;;;;;;;;;;4996369;28;20030;-75
2023/05/25 08:36:56;;;;;;;8.25;2.40;;;;;;;;;;4996391;28;20041;-76
2023/05/25 08:39:21;;;;;;;7.60;2.70;;;;;;;;;;4996283;28;20042;-76
2023/05/25 08:41:49;;;;;;;8.77;3.35;;;;;;;;;;4995661;28;20038;-76
2023/05/25 08:44:14;;;;;;;8.45;2.85;;;;;;;;;;4994958;28;20030;-75
2023/05/25 08:46:40;;;;;;;6.88;3.20;;;;;;;;;;4996033;28;20536;-76
2023/05/25 08:49:10;;;;;;;7.57;2.90;;;;;;;;;;4996358;28;20052;-76
2023/05/25 08:51:37;;;;;;;8.65;2.80;;;;;;;;;;4994280;28;20050;-76
2023/05/25 08:54:07;;;;;;;6.85;2.45;;;;;;;;;;4993855;28;20483;-77
2023/05/25 08:56:36;;;;;;;8.23;2.78;;;;;;;;;;4994914;28;20030;-76
2023/05/25 08:59:07;;;;;;;5.97;2.60;;;;;;;;;;4994686;28;20062;-77
2023/05/25 09:01:37;;;;;;;6.07;3.13;;;;;;;;;;4995789;28;20038;-77
2023/05/25 09:04:03;;;;;;;7.20;3.08;;;;;;;;;;4994669;28;20494;-77
2023/05/25 09:06:29;;;;;;;13.57;3.28;;;;;;;;;;4994686;28;20042;-76
2023/05/25 09:08:54;;;;;;;10.23;3.53;;;;;;;;;;4995802;28;20395;-76
2023/05/25 09:11:20;;;;;;;9.68;3.20;;;;;;;;;;4995826;28;20042;-76
2023/05/25 09:13:46;;;;;;;9.05;2.83;;;;;;;;;;4995465;28;20077;-76
2023/05/25 09:16:12;;;;;;;7.45;2.80;;;;;;;;;;4995606;28;20121;-76
2023/05/25 09:18:37;;;;;;;9.00;2.78;;;;;;;;;;4993907;28;20054;-76
2023/05/25 09:21:03;;;;;;;11.38;3.17;;;;;;;;;;4995596;28;20030;-77
2023/05/25 09:23:29;;;;;;;6.00;2.83;;;;;;;;;;4995016;28;20042;-76
2023/05/25 09:25:55;;;;;;;8.68;3.13;;;;;;;;;;4994286;28;20045;-76
2023/05/25 09:28:20;;;;;;;9.25;3.17;;;;;;;;;;4994308;28;20378;-74
2023/05/25 09:30:46;;;;;;;6.43;3.15;;;;;;;;;;4995574;28;20072;-74
2023/05/25 09:33:12;;;;;;;8.50;3.08;;;;;;;;;;4995101;28;20034;-74
2023/05/25 09:35:38;;;;;;;9.43;3.50;;;;;;;;;;4995112;28;20034;-74
2023/05/25 09:38:04;;;;;;;7.53;3.03;;;;;;;;;;4995270;28;20042;-74
2023/05/25 09:40:32;;;;;;;10.13;2.88;;;;;;;;;;4994175;28;20125;-74
2023/05/25 09:42:58;;;;;;;7.97;3.00;;;;;;;;;;4993905;28;20033;-74
2023/05/25 09:45:23;;;;;;;7.65;2.78;;;;;;;;;;4994982;28;20393;-76
2023/05/25 09:47:53;;;;;;;9.27;3.00;;;;;;;;;;4994775;28;20461;-74
2023/05/25 09:50:18;;;;;;;6.25;2.97;;;;;;;;;;4995132;28;20031;-74
2023/05/25 09:52:44;;;;;;;7.45;2.63;;;;;;;;;;4992474;28;20042;-73
2023/05/25 09:55:09;;;;;;;9.43;3.22;;;;;;;;;;4993906;28;20386;-74
2023/05/25 09:57:35;;;;;;;10.18;3.08;;;;;;;;;;4994305;28;20046;-73
2023/05/25 10:00:03;;;;;;;11.32;3.03;;;;;;;;;;4993356;28;20042;-74
2023/05/25 10:02:29;;;;;;;7.72;3.00;;;;;;;;;;4994615;28;20034;-73
2023/05/25 10:04:55;;;;;;;7.43;2.58;;;;;;;;;;4994653;28;20038;-73
2023/05/25 10:07:21;;;;;;;7.45;2.85;;;;;;;;;;4994650;28;20026;-74
2023/05/25 10:09:48;;;;;;;9.85;3.00;;;;;;;;;;4994720;28;20061;-74
2023/05/25 10:12:17;;;;;;;7.85;2.60;;;;;;;;;;4993411;28;20383;-76
2023/05/25 10:14:42;;;;;;;9.10;2.63;;;;;;;;;;4993313;28;20168;-76
2023/05/25 10:17:10;;;;;;;6.93;2.70;;;;;;;;;;4993420;28;20117;-73
2023/05/25 10:19:40;;;;;;;10.93;2.22;;;;;;;;;;4994406;28;20034;-73
2023/05/25 10:22:36;;;;;;;6.80;2.20;;;;;;;;;;4993230;28;20052;-74
2023/05/25 10:25:28;;;;;;;7.90;3.42;;;;;;;;;;4994460;28;20038;-74
2023/05/25 10:28:05;;;;;;;8.40;2.80;;;;;;;;;;4993208;28;20179;-73
2023/05/25 10:30:31;;;;;;;8.20;2.30;;;;;;;;;;4978922;28;20042;-73
2023/05/25 10:32:57;;;;;;;6.07;2.00;;;;;;;;;;4992866;28;20487;-73
2023/05/25 10:35:23;;;;;;;8.60;2.38;;;;;;;;;;4992703;28;20096;-75
2023/05/25 10:37:52;;;;;;;7.75;2.30;;;;;;;;;;4994083;28;20038;-75
2023/05/25 10:40:20;;;;;;;6.95;2.13;;;;;;;;;;4992970;28;20049;-76
2023/05/25 10:42:46;;;;;;;6.03;2.17;;;;;;;;;;4993066;28;20042;-75
2023/05/25 10:45:12;;;;;;;9.60;2.58;;;;;;;;;;4994166;28;20084;-76
2023/05/25 10:47:40;;;;;;;5.22;2.03;;;;;;;;;;4991069;28;20042;-75
2023/05/25 10:50:07;;;;;;;5.90;2.10;;;;;;;;;;4993009;28;20050;-76
2023/05/25 10:52:34;;;;;;;6.43;1.90;;;;;;;;;;4990999;28;20095;-75
2023/05/25 10:55:00;;;;;;;4.85;1.95;;;;;;;;;;4992999;28;20045;-76
2023/05/25 10:57:27;;;;;;;7.68;1.92;;;;;;;;;;4992695;28;20124;-75
2023/05/25 11:00:07;;;;;;;5.28;1.85;;;;;;;;;;4992147;28;20054;-75
2023/05/25 11:02:58;;;;;;;5.22;1.98;;;;;;;;;;4992822;28;20049;-75
2023/05/25 11:05:30;;;;;;;6.32;2.17;;;;;;;;;;4990382;28;20122;-75
2023/05/25 11:08:08;;;;;;;5.00;1.80;;;;;;;;;;4993859;28;20034;-76
2023/05/25 11:10:43;;;;;;;5.30;1.90;;;;;;;;;;4992755;28;20030;-75
2023/05/25 11:13:33;;;;;;;6.50;2.10;;;;;;;;;;4979250;28;20394;-75
2023/05/25 11:16:17;;;;;;;5.97;2.05;;;;;;;;;;4991865;28;20030;-75
2023/05/25 11:18:45;;;;;;;6.45;2.00;;;;;;;;;;4976812;28;20050;-76
2023/05/25 11:21:26;;;;;;;4.82;2.20;;;;;;;;;;4992521;28;20041;-76
2023/05/25 11:23:53;;;;;;;6.55;1.70;;;;;;;;;;4993685;28;20085;-76
2023/05/25 11:26:29;;;;;;;7.35;2.15;;;;;;;;;;4992490;28;20062;-75
2023/05/25 11:28:57;;;;;;;5.55;1.80;;;;;;;;;;4993540;28;20042;-76
2023/05/25 11:31:31;;;;;;;7.47;2.10;;;;;;;;;;4991051;28;20026;-75
2023/05/25 11:33:58;;;;;;;8.63;2.40;;;;;;;;;;4992338;28;20038;-75
2023/05/25 11:36:24;;;;;;;6.28;1.90;;;;;;;;;;4993582;28;20027;-76
2023/05/25 11:38:51;;;;;;;8.93;2.30;;;;;;;;;;4992452;28;20046;-75
2023/05/25 11:41:17;;;;;;;6.97;2.53;;;;;;;;;;4993487;28;20042;-76
2023/05/25 11:43:52;;;;;;;7.53;2.33;;;;;;;;;;4993249;28;20455;-76
2023/05/25 11:46:20;;;;;;;5.93;2.33;;;;;;;;;;4993565;28;20039;-76
2023/05/25 11:48:52;;;;;;;9.98;2.42;;;;;;;;;;4992228;28;20038;-76
2023/05/25 11:51:19;;;;;;;9.93;2.10;;;;;;;;;;4992090;28;20034;-76
2023/05/25 11:53:45;;;;;;;8.45;2.50;;;;;;;;;;4988156;28;20438;-76
2023/05/25 11:56:13;;;;;;;8.32;2.35;;;;;;;;;;4988878;28;20038;-76
2023/05/25 11:58:38;;;;;;;6.65;2.15;;;;;;;;;;4991381;28;20050;-75
2023/05/25 12:01:14;;;;;;;7.10;3.50;;;;;;;;;;4982130;28;20037;-76
2023/05/25 12:03:40;;;;;;;7.10;2.45;;;;;;;;;;4988753;28;20100;-75
2023/05/25 12:06:05;;;;;;;4.78;2.05;;;;;;;;;;4989253;28;20026;-75
2023/05/25 12:08:35;;;;;;;5.97;1.60;;;;;;;;;;4991813;28;20035;-74
2023/05/25 12:11:01;;;;;;;7.63;2.30;;;;;;;;;;4986138;28;20117;-76
2023/05/25 12:13:26;;;;;;;6.28;2.00;;;;;;;;;;4991110;28;20038;-75
2023/05/25 12:15:59;;;;;;;6.38;2.20;;;;;;;;;;4986767;28;20376;-75
2023/05/25 12:18:26;;;;;;;7.25;2.10;;;;;;;;;;4991252;28;20041;-75
2023/05/25 12:20:52;;;;;;;6.88;1.88;;;;;;;;;;4996727;28;20038;-75
2023/05/25 12:23:17;;;;;;;7.85;2.25;;;;;;;;;;4995195;28;20046;-76
2023/05/25 12:25:43;;;;;;;4.85;2.05;;;;;;;;;;4996236;28;20046;-76
2023/05/25 12:28:13;;;;;;;9.13;2.30;;;;;;;;;;4991564;28;20117;-76
2023/05/25 12:30:39;;;;;;;7.75;2.28;;;;;;;;;;4996026;28;20418;-75
2023/05/25 12:33:06;;;;;;;14.40;2.20;;;;;;;;;;4995042;28;20044;-76
2023/05/25 12:35:48;;;;;;;7.97;2.70;;;;;;;;;;4995206;28;20089;-76
2023/05/25 12:38:16;;;;;;;7.03;2.20;;;;;;;;;;4992624;28;20065;-76
2023/05/25 12:40:41;;;;;;;5.72;2.72;;;;;;;;;;4995227;28;20038;-75
2023/05/25 12:43:07;;;;;;;7.68;2.75;;;;;;;;;;4995975;28;20096;-76
2023/05/25 12:45:32;;;;;;;5.63;2.20;;;;;;;;;;4995648;28;20470;-76
2023/05/25 12:47:57;;;;;;;10.18;3.00;;;;;;;;;;4994877;28;20035;-76
2023/05/25 12:50:23;;;;;;;9.38;2.70;;;;;;;;;;4995993;28;20065;-76
2023/05/25 12:52:48;;;;;;;8.55;2.58;;;;;;;;;;4995752;28;20406;-75
2023/05/25 12:55:24;;;;;;;7.40;2.45;;;;;;;;;;4996203;28;20478;-76
2023/05/25 12:57:51;;;;;;;6.97;2.78;;;;;;;;;;4994353;28;20139;-75
2023/05/25 13:00:30;;;;;;;9.23;2.42;;;;;;;;;;4993165;28;20034;-75
2023/05/25 13:02:56;;;;;;;8.60;2.78;;;;;;;;;;4993966;28;20070;-76
2023/05/25 13:05:23;;;;;;;8.82;2.75;;;;;;;;;;4995860;28;20062;-76
2023/05/25 13:07:50;;;;;;;9.18;2.78;;;;;;;;;;4995973;28;20042;-76
2023/05/25 13:10:16;;;;;;;5.35;2.63;;;;;;;;;;4992723;28;20061;-76
2023/05/25 13:12:43;;;;;;;7.65;2.90;;;;;;;;;;4994205;28;20422;-76
2023/05/25 13:15:09;;;;;;;5.47;2.10;;;;;;;;;;4994665;28;20042;-76
2023/05/25 13:17:35;;;;;;;6.63;2.95;;;;;;;;;;4995628;28;20100;-76
2023/05/25 13:20:00;;;;;;;11.32;3.28;;;;;;;;;;4994243;28;20027;-77
2023/05/25 13:22:25;;;;;;;6.53;2.45;;;;;;;;;;4993055;28;20047;-75
2023/05/25 13:24:51;;;;;;;7.72;2.22;;;;;;;;;;4994281;28;20038;-76
2023/05/25 13:27:16;;;;;;;5.43;2.00;;;;;;;;;;4995276;28;20486;-76
2023/05/25 13:29:42;;;;;;;8.43;2.80;;;;;;;;;;4995403;28;20034;-75
2023/05/25 13:32:07;;;;;;;9.07;2.30;;;;;;;;;;4994758;28;20038;-76
2023/05/25 13:34:34;;;;;;;6.18;2.58;;;;;;;;;;4995315;28;20073;-75
2023/05/25 13:36:59;;;;;;;9.07;2.83;;;;;;;;;;4995315;28;20046;-76
2023/05/25 13:39:25;;;;;;;10.50;2.50;;;;;;;;;;4995198;28;20056;-76
2023/05/25 13:41:50;;;;;;;7.40;2.58;;;;;;;;;;4993628;28;20061;-75
2023/05/25 13:44:15;;;;;;;7.10;2.75;;;;;;;;;;4995218;28;20045;-75
2023/05/25 13:46:41;;;;;;;6.85;2.45;;;;;;;;;;4994877;28;20046;-75
2023/05/25 13:49:06;;;;;;;9.98;3.15;;;;;;;;;;4993916;28;20455;-76
2023/05/25 13:51:34;;;;;;;10.15;2.72;;;;;;;;;;4995260;28;20041;-75
2023/05/25 13:54:03;;;;;;;10.25;2.63;;;;;;;;;;4994888;28;20095;-76
2023/05/25 13:56:28;;;;;;;6.22;2.28;;;;;;;;;;4990773;28;20472;-77
2023/05/25 13:58:54;;;;;;;5.45;2.40;;;;;;;;;;4994654;28;20050;-76
2023/05/25 14:01:19;;;;;;;6.25;2.65;;;;;;;;;;4994808;28;20050;-76
2023/05/25 14:03:45;;;;;;;8.52;2.42;;;;;;;;;;4994713;28;20034;-75
2023/05/25 14:06:11;;;;;;;7.93;2.80;;;;;;;;;;4993704;28;20046;-76
2023/05/25 14:08:36;;;;;;;9.88;3.50;;;;;;;;;;4994659;28;20038;-75
2023/05/25 14:11:01;;;;;;;7.85;3.08;;;;;;;;;;4994752;28;20038;-76
2023/05/25 14:13:27;;;;;;;7.45;2.88;;;;;;;;;;4994626;28;20117;-75
2023/05/25 14:15:52;;;;;;;7.50;2.28;;;;;;;;;;4994616;28;20050;-75
2023/05/25 14:18:18;;;;;;;6.75;2.65;;;;;;;;;;4994508;28;20430;-75
2023/05/25 14:20:43;;;;;;;9.80;2.60;;;;;;;;;;4994332;28;20046;-75
2023/05/25 14:23:09;;;;;;;7.65;2.85;;;;;;;;;;4993485;28;20475;-76
2023/05/25 14:25:34;;;;;;;9.25;2.78;;;;;;;;;;4994318;28;20030;-76
2023/05/25 14:28:00;;;;;;;6.80;2.30;;;;;;;;;;4994312;28;20046;-75
2023/05/25 14:30:25;;;;;;;12.13;3.03;;;;;;;;;;4993929;28;20046;-76
2023/05/25 14:32:50;;;;;;;8.70;2.50;;;;;;;;;;4994397;28;20066;-75
2023/05/25 14:35:16;;;;;;;6.00;2.17;;;;;;;;;;4992986;28;20455;-75
2023/05/25 14:37:41;;;;;;;10.45;2.33;;;;;;;;;;4993991;28;20508;-75
2023/05/25 14:40:07;;;;;;;5.13;2.28;;;;;;;;;;4993580;28;20157;-76